Time,TemperatureF,DewpointF,PressureIn,WindDirection,WindDirectionDegrees,WindSpeedMPH,WindSpeedGustMPH,Humidity,HourlyPrecipIn,Conditions,Clouds,dailyrainin,SolarRadiationWatts/m^2,SoftwareType,DateUTC
2013-02-05 00:01:00,60.0,59.0,-100.00,SE,143,3.0,5.0,97,0.00,,,0.02,0.000000,,2013-02-05 06:01:00,
2013-02-05 00:32:00,59.0,58.0,-100.00,SE,134,1.0,4.0,98,0.00,,,0.02,0.000000,,2013-02-05 06:32:00,
2013-02-05 00:42:00,59.0,58.0,-100.00,SE,134,1.0,4.0,98,0.00,,,0.02,0.000000,,2013-02-05 06:42:00,
2013-02-05 00:52:00,59.0,58.0,-100.00,SE,134,1.0,4.0,98,0.00,,,0.02,0.000000,,2013-02-05 06:52:00,
2013-02-05 01:01:00,59.0,58.0,-100.00,SE,134,1.0,4.0,98,0.00,,,0.02,0.000000,,2013-02-05 07:01:00,
2013-02-05 01:32:00,60.0,59.0,-100.00,SE,126,3.0,5.0,98,0.00,,,0.02,0.000000,,2013-02-05 07:32:00,
2013-02-05 01:42:00,60.0,59.0,-100.00,SE,126,3.0,5.0,98,0.00,,,0.02,0.000000,,2013-02-05 07:42:00,
2013-02-05 01:52:00,60.0,59.0,-100.00,SE,126,3.0,5.0,98,0.00,,,0.02,0.000000,,2013-02-05 07:52:00,
2013-02-05 02:01:00,60.0,59.0,-100.00,SE,126,3.0,5.0,98,0.00,,,0.02,0.000000,,2013-02-05 08:01:00,
2013-02-05 02:22:00,60.0,59.0,-100.00,SE,130,3.0,5.0,98,0.00,,,0.02,0.000000,,2013-02-05 08:22:00,
2013-02-05 02:32:00,60.0,59.0,-100.00,SE,130,3.0,5.0,98,0.00,,,0.02,0.000000,,2013-02-05 08:32:00,
2013-02-05 02:42:00,60.0,59.0,-100.00,SE,130,3.0,5.0,98,0.00,,,0.02,0.000000,,2013-02-05 08:42:00,
2013-02-05 02:52:00,60.0,59.0,-100.00,SE,130,3.0,5.0,98,0.00,,,0.02,0.000000,,2013-02-05 08:52:00,
2013-02-05 03:02:00,60.0,59.0,-100.00,SE,130,3.0,5.0,98,0.00,,,0.02,0.000000,,2013-02-05 09:02:00,
2013-02-05 03:22:00,60.0,59.0,-100.00,SE,126,2.0,4.0,98,0.00,,,0.02,0.000000,,2013-02-05 09:22:00,
2013-02-05 03:32:00,60.0,59.0,-100.00,SE,126,2.0,4.0,98,0.00,,,0.02,0.000000,,2013-02-05 09:32:00,
2013-02-05 03:42:00,60.0,59.0,-100.00,SE,126,2.0,4.0,98,0.00,,,0.02,0.000000,,2013-02-05 09:42:00,
2013-02-05 03:52:00,60.0,59.0,-100.00,SE,126,2.0,4.0,98,0.00,,,0.02,0.000000,,2013-02-05 09:52:00,
2013-02-05 04:02:00,60.0,59.0,-100.00,SE,126,2.0,4.0,98,0.00,,,0.02,0.000000,,2013-02-05 10:02:00,
2013-02-05 04:32:00,60.0,59.0,-100.00,East,90,1.0,4.0,98,0.00,,,0.02,0.000000,,2013-02-05 10:32:00,
2013-02-05 04:42:00,60.0,59.0,-100.00,East,90,1.0,4.0,98,0.00,,,0.02,0.000000,,2013-02-05 10:42:00,
2013-02-05 04:52:00,60.0,59.0,-100.00,East,90,1.0,4.0,98,0.00,,,0.02,0.000000,,2013-02-05 10:52:00,
2013-02-05 05:01:00,60.0,59.0,-100.00,East,90,1.0,4.0,98,0.00,,,0.02,0.000000,,2013-02-05 11:01:00,
2013-02-05 05:32:00,60.0,60.0,-100.00,South,175,0.0,2.0,99,0.00,,,0.02,0.000000,,2013-02-05 11:32:00,
2013-02-05 05:42:00,60.0,60.0,-100.00,South,175,0.0,2.0,99,0.00,,,0.02,0.000000,,2013-02-05 11:42:00,
2013-02-05 05:52:00,60.0,60.0,-100.00,South,175,0.0,2.0,99,0.00,,,0.02,0.000000,,2013-02-05 11:52:00,
2013-02-05 06:01:00,60.0,60.0,-100.00,South,175,0.0,2.0,99,0.00,,,0.02,0.000000,,2013-02-05 12:01:00,
2013-02-05 06:32:00,60.0,60.0,-100.00,SSE,153,0.0,2.0,99,0.00,,,0.02,0.000000,,2013-02-05 12:32:00,
2013-02-05 06:42:00,60.0,60.0,-100.00,SSE,153,0.0,2.0,99,0.00,,,0.02,0.000000,,2013-02-05 12:42:00,
2013-02-05 06:52:00,60.0,60.0,-100.00,SSE,153,0.0,2.0,99,0.00,,,0.02,0.000000,,2013-02-05 12:52:00,
2013-02-05 07:01:00,60.0,60.0,-100.00,SSE,153,0.0,2.0,99,0.00,,,0.02,0.000000,,2013-02-05 13:01:00,
2013-02-05 07:32:00,60.0,60.0,-100.00,South,175,2.0,5.0,99,0.00,,,0.02,0.000000,,2013-02-05 13:32:00,
2013-02-05 07:42:00,60.0,60.0,-100.00,South,175,2.0,5.0,99,0.00,,,0.02,0.000000,,2013-02-05 13:42:00,
2013-02-05 07:52:00,60.0,60.0,-100.00,South,175,2.0,5.0,99,0.00,,,0.02,0.000000,,2013-02-05 13:52:00,
2013-02-05 08:01:00,60.0,60.0,-100.00,South,175,2.0,5.0,99,0.00,,,0.02,0.000000,,2013-02-05 14:01:00,
2013-02-05 08:32:00,60.0,60.0,-100.00,NNE,23,0.0,4.0,99,0.00,,,0.02,5.000000,,2013-02-05 14:32:00,
2013-02-05 08:42:00,60.0,60.0,-100.00,NNE,23,0.0,4.0,99,0.00,,,0.02,5.000000,,2013-02-05 14:42:00,
2013-02-05 08:52:00,60.0,60.0,-100.00,NNE,23,0.0,4.0,99,0.00,,,0.02,5.000000,,2013-02-05 14:52:00,
2013-02-05 09:02:00,60.0,60.0,-100.00,NNE,23,0.0,4.0,99,0.00,,,0.02,5.000000,,2013-02-05 15:02:00,
2013-02-05 09:32:00,61.0,61.0,-100.00,SE,133,2.0,4.0,99,0.00,,,0.02,29.000000,,2013-02-05 15:32:00,
2013-02-05 09:42:00,61.0,61.0,-100.00,SE,133,2.0,4.0,99,0.00,,,0.02,29.000000,,2013-02-05 15:42:00,
2013-02-05 09:52:00,61.0,61.0,-100.00,SE,133,2.0,4.0,99,0.00,,,0.02,29.000000,,2013-02-05 15:52:00,
2013-02-05 10:01:00,61.0,61.0,-100.00,SE,133,2.0,4.0,99,0.00,,,0.02,29.000000,,2013-02-05 16:01:00,
2013-02-05 10:33:00,62.0,62.0,-100.00,SE,125,3.0,5.0,99,0.00,,,-99.99,55.000000,,2013-02-05 16:33:00,
2013-02-05 10:42:00,62.0,62.0,-100.00,SE,125,3.0,5.0,99,0.00,,,-99.99,55.000000,,2013-02-05 16:42:00,
2013-02-05 10:52:00,62.0,62.0,-100.00,SE,125,3.0,5.0,99,0.00,,,-99.99,55.000000,,2013-02-05 16:52:00,
2013-02-05 11:01:00,62.0,62.0,-100.00,SE,125,3.0,5.0,99,0.00,,,-99.99,55.000000,,2013-02-05 17:01:00,
2013-02-05 11:33:00,64.0,63.0,-100.00,ESE,117,2.0,5.0,97,0.00,,,-99.99,141.000000,,2013-02-05 17:33:00,
2013-02-05 11:42:00,64.0,63.0,-100.00,ESE,117,2.0,5.0,97,0.00,,,-99.99,141.000000,,2013-02-05 17:42:00,
2013-02-05 11:52:00,64.0,63.0,-100.00,ESE,117,2.0,5.0,97,0.00,,,-99.99,141.000000,,2013-02-05 17:52:00,
2013-02-05 12:02:00,64.0,63.0,-100.00,ESE,117,2.0,5.0,97,0.00,,,-99.99,141.000000,,2013-02-05 18:02:00,
2013-02-05 12:32:00,67.0,64.0,-100.00,ESE,119,3.0,6.0,90,0.00,,,0.01,193.000000,,2013-02-05 18:32:00,
2013-02-05 12:42:00,67.0,64.0,-100.00,ESE,119,3.0,6.0,90,0.00,,,0.01,193.000000,,2013-02-05 18:42:00,
2013-02-05 12:52:00,67.0,64.0,-100.00,ESE,119,3.0,6.0,90,0.00,,,0.01,193.000000,,2013-02-05 18:52:00,
2013-02-05 13:02:00,67.0,64.0,-100.00,ESE,119,3.0,6.0,90,0.00,,,0.01,193.000000,,2013-02-05 19:02:00,
2013-02-05 13:32:00,70.0,62.0,-100.00,SE,145,5.0,10.0,76,0.00,,,0.01,582.000000,,2013-02-05 19:32:00,
2013-02-05 13:42:00,70.0,62.0,-100.00,SE,145,5.0,10.0,76,0.00,,,0.01,582.000000,,2013-02-05 19:42:00,
2013-02-05 13:52:00,70.0,62.0,-100.00,SE,145,5.0,10.0,76,0.00,,,0.01,582.000000,,2013-02-05 19:52:00,
2013-02-05 14:01:00,70.0,62.0,-100.00,SE,145,5.0,10.0,76,0.00,,,0.01,582.000000,,2013-02-05 20:01:00,
2013-02-05 14:32:00,70.0,59.0,-100.00,ESE,116,6.0,9.0,69,0.00,,,0.01,432.000000,,2013-02-05 20:32:00,
2013-02-05 14:42:00,70.0,59.0,-100.00,ESE,116,6.0,9.0,69,0.00,,,0.01,432.000000,,2013-02-05 20:42:00,
2013-02-05 14:52:00,70.0,59.0,-100.00,ESE,116,6.0,9.0,69,0.00,,,0.01,432.000000,,2013-02-05 20:52:00,
2013-02-05 15:02:00,70.0,59.0,-100.00,ESE,116,6.0,9.0,69,0.00,,,0.01,432.000000,,2013-02-05 21:02:00,
2013-02-05 15:22:00,72.0,59.0,-100.00,East,100,5.0,10.0,63,0.00,,,0.01,430.000000,,2013-02-05 21:22:00,
2013-02-05 15:32:00,72.0,59.0,-100.00,East,100,5.0,10.0,63,0.00,,,0.01,430.000000,,2013-02-05 21:32:00,
2013-02-05 15:42:00,72.0,59.0,-100.00,East,100,5.0,10.0,63,0.00,,,0.01,430.000000,,2013-02-05 21:42:00,
2013-02-05 15:52:00,72.0,59.0,-100.00,East,100,5.0,10.0,63,0.00,,,0.01,430.000000,,2013-02-05 21:52:00,
2013-02-05 16:01:00,72.0,59.0,-100.00,East,100,5.0,10.0,63,0.00,,,0.01,430.000000,,2013-02-05 22:01:00,
2013-02-05 16:22:00,74.0,59.0,-100.00,ESE,111,7.0,11.0,60,0.00,,,0.01,522.000000,,2013-02-05 22:22:00,
2013-02-05 16:32:00,74.0,59.0,-100.00,ESE,111,7.0,11.0,60,0.00,,,0.01,522.000000,,2013-02-05 22:32:00,
2013-02-05 16:42:00,74.0,59.0,-100.00,ESE,111,7.0,11.0,60,0.00,,,0.01,522.000000,,2013-02-05 22:42:00,
2013-02-05 16:52:00,74.0,59.0,-100.00,ESE,111,7.0,11.0,60,0.00,,,0.01,522.000000,,2013-02-05 22:52:00,
2013-02-05 17:02:00,74.0,59.0,-100.00,ESE,111,7.0,11.0,60,0.00,,,0.01,522.000000,,2013-02-05 23:02:00,
2013-02-05 17:22:00,72.0,59.0,-100.00,ESE,102,5.0,10.0,64,0.00,,,0.00,254.000000,,2013-02-05 23:22:00,
2013-02-05 17:32:00,72.0,59.0,-100.00,ESE,102,5.0,10.0,64,0.00,,,0.00,254.000000,,2013-02-05 23:32:00,
2013-02-05 17:42:00,72.0,59.0,-100.00,ESE,102,5.0,10.0,64,0.00,,,0.00,254.000000,,2013-02-05 23:42:00,
2013-02-05 17:52:00,72.0,59.0,-100.00,ESE,102,5.0,10.0,64,0.00,,,0.00,254.000000,,2013-02-05 23:52:00,
2013-02-05 18:02:00,72.0,59.0,-100.00,ESE,102,5.0,10.0,64,0.00,,,0.00,254.000000,,2013-02-06 00:02:00,
2013-02-05 18:32:00,69.0,58.0,-100.00,ESE,103,3.0,8.0,67,0.00,,,0.00,30.000000,,2013-02-06 00:32:00,
2013-02-05 18:42:00,69.0,58.0,-100.00,ESE,103,3.0,8.0,67,0.00,,,0.00,30.000000,,2013-02-06 00:42:00,
2013-02-05 18:52:00,69.0,58.0,-100.00,ESE,103,3.0,8.0,67,0.00,,,0.00,30.000000,,2013-02-06 00:52:00,
2013-02-05 19:02:00,69.0,58.0,-100.00,ESE,103,3.0,8.0,67,0.00,,,0.00,30.000000,,2013-02-06 01:02:00,
2013-02-05 19:32:00,64.0,57.0,-100.00,NE,37,0.0,4.0,79,0.00,,,0.00,0.000000,,2013-02-06 01:32:00,
2013-02-05 19:42:00,64.0,57.0,-100.00,NE,37,0.0,4.0,79,0.00,,,0.00,0.000000,,2013-02-06 01:42:00,
2013-02-05 19:53:00,64.0,57.0,-100.00,NE,37,0.0,4.0,79,0.00,,,0.00,0.000000,,2013-02-06 01:53:00,
2013-02-05 20:01:00,64.0,57.0,-100.00,NE,37,0.0,4.0,79,0.00,,,0.00,0.000000,,2013-02-06 02:01:00,
2013-02-05 20:32:00,60.0,57.0,-100.00,East,97,1.0,2.0,89,0.00,,,0.00,0.000000,,2013-02-06 02:32:00,
2013-02-05 20:42:00,60.0,57.0,-100.00,East,97,1.0,2.0,89,0.00,,,0.00,0.000000,,2013-02-06 02:42:00,
2013-02-05 20:52:00,60.0,57.0,-100.00,East,97,1.0,2.0,89,0.00,,,0.00,0.000000,,2013-02-06 02:52:00,
2013-02-05 21:02:00,60.0,57.0,-100.00,East,97,1.0,2.0,89,0.00,,,0.00,0.000000,,2013-02-06 03:02:00,
2013-02-05 21:33:00,62.0,59.0,-100.00,SE,132,4.0,6.0,90,0.00,,,0.00,0.000000,,2013-02-06 03:33:00,
2013-02-05 21:42:00,62.0,59.0,-100.00,SE,132,4.0,6.0,90,0.00,,,0.00,0.000000,,2013-02-06 03:42:00,
2013-02-05 21:53:00,62.0,59.0,-100.00,SE,132,4.0,6.0,90,0.00,,,0.00,0.000000,,2013-02-06 03:53:00,
2013-02-05 22:02:00,62.0,59.0,-100.00,SE,132,4.0,6.0,90,0.00,,,0.00,0.000000,,2013-02-06 04:02:00,
2013-02-05 22:32:00,62.0,57.0,-100.00,ESE,108,5.0,8.0,85,0.00,,,0.00,0.000000,,2013-02-06 04:32:00,
2013-02-05 22:42:00,62.0,57.0,-100.00,ESE,108,5.0,8.0,85,0.00,,,0.00,0.000000,,2013-02-06 04:42:00,
2013-02-05 22:52:00,62.0,57.0,-100.00,ESE,108,5.0,8.0,85,0.00,,,0.00,0.000000,,2013-02-06 04:52:00,
2013-02-05 23:02:00,62.0,57.0,-100.00,ESE,108,5.0,8.0,85,0.00,,,0.00,0.000000,,2013-02-06 05:02:00,
2013-02-05 23:32:00,62.0,58.0,-100.00,SE,127,4.0,7.0,87,0.00,,,0.00,0.000000,,2013-02-06 05:32:00,
2013-02-05 23:42:00,62.0,58.0,-100.00,SE,127,4.0,7.0,87,0.00,,,0.00,0.000000,,2013-02-06 05:42:00,
2013-02-05 23:53:00,62.0,58.0,-100.00,SE,127,4.0,7.0,87,0.00,,,0.00,0.000000,,2013-02-06 05:53:00,